KCOD

Yellowstone Regional Airport

Cody, Wyoming, USA
METAR KCOD 141256Z AUTO 35004KT 10SM CLR 12/08 A3010 RMK AO2 SLP162 T01170078
Observed Flight Rules
Aug-14 @ 12:56 UTC (45 minutes ago) Visual Flight Rules
Wind Visibility Clouds
350° at 4 knots 10 miles
  • Clear skies
Temperatures Readings
Current 12°C / 54°F
Dewpoint 8°C / 46°F
Humidity 77%
Altimeter 30.1" Hg
Pressure 1016.2 hPa
Elevation 1553
METAR KCOD 141256Z AUTO 35004KT 10SM CLR 12/08 A3010 RMK AO2 SLP162 T01170078
Observed Flight Rules
Aug-14 @ 12:56 UTC
(45 minutes ago)
VFR
Wind Visibility
350° at 4 knots 10 miles
Clouds
  • Clear skies
Temperature Dewpoint
12°C / 54°F 8°C / 46°F
Humidity Altimeter Pressure
77% 30.1" Hg 1016.2 hPa